createdAt,value
2023-03-05T00:01:24.461Z,2.66
2023-03-05T00:03:54.477Z,2.63
2023-03-05T00:06:23.717Z,2.59
2023-03-05T00:08:53.554Z,2.56
2023-03-05T00:11:22.037Z,2.51
2023-03-05T00:13:52.241Z,2.48
2023-03-05T00:16:20.585Z,2.44
2023-03-05T00:18:48.621Z,2.42
2023-03-05T00:21:18.437Z,2.41
2023-03-05T00:23:46.095Z,2.40
2023-03-05T00:26:13.629Z,2.41
2023-03-05T00:28:41.503Z,2.45
2023-03-05T00:31:08.803Z,2.46
2023-03-05T00:33:36.041Z,2.47
2023-03-05T00:36:06.994Z,2.49
2023-03-05T00:38:36.453Z,2.49
2023-03-05T00:41:06.271Z,2.49
2023-03-05T00:43:33.498Z,2.49
2023-03-05T00:46:00.853Z,2.52
2023-03-05T00:48:28.239Z,2.54
2023-03-05T00:50:55.679Z,2.57
2023-03-05T00:53:23.022Z,2.59
2023-03-05T00:55:51.812Z,2.58
2023-03-05T00:58:20.332Z,2.58
2023-03-05T01:00:50.658Z,2.56
2023-03-05T01:03:19.116Z,2.54
2023-03-05T01:05:46.394Z,2.51
2023-03-05T01:08:13.663Z,2.50
2023-03-05T01:10:40.892Z,2.48
2023-03-05T01:13:08.482Z,2.46
2023-03-05T01:15:35.765Z,2.45
2023-03-05T01:18:03.109Z,2.42
2023-03-05T01:20:30.402Z,2.40
2023-03-05T01:22:59.235Z,2.37
2023-03-05T01:25:26.645Z,2.37
2023-03-05T01:27:54.122Z,2.36
2023-03-05T01:30:21.430Z,2.33
2023-03-05T01:32:48.703Z,2.30
2023-03-05T01:35:22.206Z,2.28
2023-03-05T01:37:49.533Z,2.27
2023-03-05T01:40:26.143Z,2.27
2023-03-05T01:43:12.186Z,2.28
2023-03-05T01:46:18.070Z,2.27
2023-03-05T01:48:50.302Z,2.28
2023-03-05T01:51:20.132Z,2.28
2023-03-05T01:53:47.872Z,2.28
2023-03-05T01:56:16.484Z,2.28
2023-03-05T01:58:45.019Z,2.30
2023-03-05T02:01:13.090Z,2.31
2023-03-05T02:03:41.924Z,2.30
2023-03-05T02:06:09.781Z,2.30
2023-03-05T02:08:37.098Z,2.31
2023-03-05T02:11:04.774Z,2.29
2023-03-05T02:13:38.270Z,2.29
2023-03-05T02:16:08.582Z,2.27
2023-03-05T02:18:36.260Z,2.22
2023-03-05T02:21:06.004Z,2.22
2023-03-05T02:23:38.613Z,2.20
2023-03-05T02:26:09.678Z,2.17
2023-03-05T02:28:44.564Z,2.17
2023-03-05T02:31:24.040Z,2.17
2023-03-05T02:33:54.022Z,2.18
2023-03-05T02:36:22.790Z,2.20
2023-03-05T02:38:50.611Z,2.21
2023-03-05T02:41:18.048Z,2.21
2023-03-05T02:43:45.719Z,2.20
2023-03-05T02:46:13.225Z,2.18
2023-03-05T02:48:43.062Z,2.14
2023-03-05T02:51:12.794Z,2.08
2023-03-05T02:53:40.039Z,2.03
2023-03-05T02:56:07.657Z,2.00
2023-03-05T02:58:36.533Z,1.97
2023-03-05T03:01:04.121Z,1.95
2023-03-05T03:03:31.817Z,1.93
2023-03-05T03:05:59.653Z,1.93
2023-03-05T03:08:27.040Z,1.92
2023-03-05T03:10:56.462Z,1.91
2023-03-05T03:13:25.330Z,1.93
2023-03-05T03:16:04.776Z,1.95
2023-03-05T03:18:32.090Z,1.95
2023-03-05T03:20:59.799Z,1.95
2023-03-05T03:23:28.183Z,1.97
2023-03-05T03:25:55.675Z,1.95
2023-03-05T03:28:23.014Z,1.95
2023-03-05T03:30:51.666Z,1.97
2023-03-05T03:33:18.960Z,1.94
2023-03-05T03:35:46.586Z,1.94
2023-03-05T03:38:14.588Z,1.91
2023-03-05T03:40:42.278Z,1.89
2023-03-05T03:43:09.685Z,1.85
2023-03-05T03:45:41.763Z,1.81
2023-03-05T03:48:09.431Z,1.81
2023-03-05T03:50:43.853Z,1.79
2023-03-05T03:53:14.443Z,1.77
2023-03-05T03:55:51.051Z,1.77
2023-03-05T03:58:18.291Z,1.75
2023-03-05T04:00:45.612Z,1.75
2023-03-05T04:03:12.865Z,1.77
2023-03-05T04:05:40.152Z,1.78
2023-03-05T04:08:12.081Z,1.81
2023-03-05T04:10:42.171Z,1.82
2023-03-05T04:13:09.431Z,1.84
2023-03-05T04:15:36.789Z,1.88
2023-03-05T04:18:04.364Z,1.88
2023-03-05T04:20:31.724Z,1.89
2023-03-05T04:22:58.994Z,1.90
2023-03-05T04:25:26.321Z,1.94
2023-03-05T04:28:00.896Z,1.94
2023-03-05T04:30:28.199Z,1.93
2023-03-05T04:32:55.485Z,1.91
2023-03-05T04:35:23.108Z,1.91
2023-03-05T04:37:50.683Z,1.89
2023-03-05T04:40:18.288Z,1.88
2023-03-05T04:42:45.930Z,1.87
2023-03-05T04:45:13.274Z,1.86
2023-03-05T04:47:40.529Z,1.85
2023-03-05T04:50:09.822Z,1.85
2023-03-05T04:52:42.736Z,1.82
2023-03-05T04:55:11.905Z,1.81
2023-03-05T04:57:40.312Z,1.83
2023-03-05T05:00:16.996Z,1.82
2023-03-05T05:02:46.805Z,1.83
2023-03-05T05:05:16.422Z,1.83
2023-03-05T05:07:44.766Z,1.82
2023-03-05T05:10:15.233Z,1.81
2023-03-05T05:12:43.007Z,1.83
2023-03-05T05:15:12.737Z,1.86
2023-03-05T05:17:40.253Z,1.89
2023-03-05T05:20:10.872Z,1.94
2023-03-05T05:22:38.320Z,1.97
2023-03-05T05:25:06.399Z,2.00
2023-03-05T05:27:33.997Z,2.01
2023-03-05T05:30:01.428Z,2.02
2023-03-05T05:32:28.756Z,2.00
2023-03-05T05:34:57.923Z,2.00
2023-03-05T05:37:26.699Z,2.00
2023-03-05T05:39:54.214Z,1.99
2023-03-05T05:42:23.806Z,1.95
2023-03-05T05:44:51.426Z,1.92
2023-03-05T05:47:18.965Z,1.90
2023-03-05T05:49:46.536Z,1.86
2023-03-05T05:52:13.951Z,1.82
2023-03-05T05:54:41.344Z,1.76
2023-03-05T05:57:09.060Z,1.73
2023-03-05T05:59:38.504Z,1.68
2023-03-05T06:02:07.928Z,1.63
2023-03-05T06:04:36.178Z,1.60
2023-03-05T06:07:04.131Z,1.58
2023-03-05T06:09:32.590Z,1.55
2023-03-05T06:11:59.811Z,1.52
2023-03-05T06:14:27.230Z,1.52
2023-03-05T06:16:54.753Z,1.50
2023-03-05T06:19:22.051Z,1.48
2023-03-05T06:21:49.300Z,1.46
2023-03-05T06:24:16.555Z,1.47
2023-03-05T06:26:43.875Z,1.47
2023-03-05T06:29:11.072Z,1.46
2023-03-05T06:31:39.671Z,1.46
2023-03-05T06:34:07.241Z,1.48
2023-03-05T06:36:34.684Z,1.49
2023-03-05T06:39:01.991Z,1.51
2023-03-05T06:41:31.576Z,1.54
2023-03-05T06:44:03.269Z,1.59
2023-03-05T06:46:37.245Z,1.62
2023-03-05T06:49:05.361Z,1.64
2023-03-05T06:51:35.716Z,1.65
2023-03-05T06:54:06.724Z,1.67
2023-03-05T06:56:36.484Z,1.71
2023-03-05T06:59:04.416Z,1.75
2023-03-05T07:01:33.824Z,1.79
2023-03-05T07:04:03.053Z,1.83
2023-03-05T07:06:36.115Z,1.90
2023-03-05T07:09:04.433Z,2.00
2023-03-05T07:11:32.558Z,2.08
2023-03-05T07:14:00.516Z,2.14
2023-03-05T07:16:30.964Z,2.19
2023-03-05T07:19:00.466Z,2.22
2023-03-05T07:21:30.182Z,2.24
2023-03-05T07:24:00.683Z,2.26
2023-03-05T07:26:28.512Z,2.28
2023-03-05T07:28:56.679Z,2.32
2023-03-05T07:31:27.513Z,2.35
2023-03-05T07:33:54.901Z,2.39
2023-03-05T07:36:22.241Z,2.45
2023-03-05T07:38:49.597Z,2.51
2023-03-05T07:41:23.657Z,2.58
2023-03-05T07:43:55.669Z,2.67
2023-03-05T07:46:27.163Z,2.76
2023-03-05T07:48:55.354Z,2.85
2023-03-05T07:51:24.140Z,2.96
2023-03-05T07:53:53.181Z,3.09
2023-03-05T07:56:32.119Z,3.23
2023-03-05T07:59:01.418Z,3.35
2023-03-05T08:01:30.411Z,3.50
2023-03-05T08:03:57.799Z,3.67
2023-03-05T08:06:25.122Z,3.91
2023-03-05T08:08:52.442Z,4.17
2023-03-05T08:11:19.841Z,4.46
2023-03-05T08:13:47.134Z,4.84
2023-03-05T08:16:17.638Z,5.18
2023-03-05T08:18:45.747Z,5.49
2023-03-05T08:21:29.471Z,5.76
2023-03-05T08:23:57.793Z,5.99
2023-03-05T08:26:27.767Z,6.09
2023-03-05T08:28:55.747Z,6.04
2023-03-05T08:31:25.995Z,5.95
2023-03-05T08:33:55.670Z,5.84
2023-03-05T08:36:23.170Z,5.83
2023-03-05T08:38:51.228Z,5.82
2023-03-05T08:41:19.301Z,5.85
2023-03-05T08:43:46.707Z,5.81
2023-03-05T08:46:16.465Z,5.71
2023-03-05T08:48:43.922Z,5.60
2023-03-05T08:51:17.745Z,5.54
2023-03-05T08:53:46.729Z,5.44
2023-03-05T08:56:15.376Z,5.37
2023-03-05T08:58:44.694Z,5.33
2023-03-05T09:01:13.098Z,5.33
2023-03-05T09:03:41.112Z,5.42
2023-03-05T09:06:10.985Z,5.54
2023-03-05T09:08:39.147Z,5.59
2023-03-05T09:11:08.488Z,5.65
2023-03-05T09:13:36.193Z,5.71
2023-03-05T09:16:06.716Z,5.70
2023-03-05T09:18:37.112Z,5.71
2023-03-05T09:21:06.016Z,5.66
2023-03-05T09:23:33.264Z,5.65
2023-03-05T09:26:00.620Z,5.65
2023-03-05T09:28:28.127Z,5.55
2023-03-05T09:30:55.333Z,5.39
2023-03-05T09:33:22.609Z,5.32
2023-03-05T09:35:49.964Z,5.28
2023-03-05T09:38:18.983Z,5.26
2023-03-05T09:40:58.572Z,5.27
2023-03-05T09:44:02.420Z,5.26
2023-03-05T09:46:48.602Z,5.26
2023-03-05T09:49:47.147Z,5.32
2023-03-05T09:52:22.783Z,5.41
2023-03-05T09:54:56.676Z,5.49
2023-03-05T09:57:42.501Z,5.55
2023-03-05T10:00:21.942Z,5.61
2023-03-05T10:02:55.819Z,5.62
2023-03-05T10:05:31.141Z,5.67
2023-03-05T10:08:03.588Z,5.70
2023-03-05T10:10:52.819Z,5.74
2023-03-05T10:13:25.600Z,5.76
2023-03-05T10:15:58.945Z,5.74
2023-03-05T10:18:32.330Z,5.78
2023-03-05T10:21:04.554Z,5.90
2023-03-05T10:23:38.421Z,6.01
2023-03-05T10:26:56.375Z,6.06
2023-03-05T10:29:59.076Z,6.11
2023-03-05T10:32:42.080Z,6.12
2023-03-05T10:35:12.453Z,6.12
2023-03-05T10:37:56.103Z,6.08
2023-03-05T10:40:26.877Z,5.97
2023-03-05T10:43:12.999Z,5.92
2023-03-05T10:45:49.805Z,5.94
2023-03-05T10:48:42.730Z,6.03
2023-03-05T10:51:24.629Z,6.13
2023-03-05T10:54:02.017Z,6.17
2023-03-05T10:56:31.859Z,6.17
2023-03-05T10:58:59.345Z,6.24
2023-03-05T11:01:33.427Z,6.38
2023-03-05T11:04:04.298Z,6.51
2023-03-05T11:06:43.158Z,6.56
2023-03-05T11:09:24.611Z,6.60
2023-03-05T11:12:20.414Z,6.70
2023-03-05T11:15:22.890Z,6.81
2023-03-05T11:18:17.105Z,6.81
2023-03-05T11:20:45.382Z,6.71
2023-03-05T11:23:14.292Z,6.62
2023-03-05T11:26:12.484Z,6.53
2023-03-05T11:28:55.059Z,6.54
2023-03-05T11:31:26.077Z,6.60
2023-03-05T11:33:59.476Z,6.52
2023-03-05T11:36:26.844Z,6.48
2023-03-05T11:38:56.153Z,6.41
2023-03-05T11:41:29.572Z,6.38
2023-03-05T11:43:58.985Z,6.36
2023-03-05T11:46:27.994Z,6.38
2023-03-05T11:48:58.715Z,6.39
2023-03-05T11:51:36.920Z,6.38
2023-03-05T11:54:08.889Z,6.36
2023-03-05T11:56:37.476Z,6.43
2023-03-05T11:59:20.124Z,6.57
2023-03-05T12:01:52.357Z,6.74
2023-03-05T12:04:20.745Z,6.94
2023-03-05T12:07:10.722Z,7.15
2023-03-05T12:09:42.230Z,7.26
2023-03-05T12:12:38.642Z,7.14
2023-03-05T12:15:12.329Z,7.02
2023-03-05T12:17:51.183Z,6.97
2023-03-05T12:20:30.082Z,6.90
2023-03-05T12:22:57.790Z,6.88
2023-03-05T12:25:44.672Z,6.99
2023-03-05T12:28:30.952Z,7.02
2023-03-05T12:31:04.223Z,7.03
2023-03-05T12:33:40.781Z,7.00
2023-03-05T12:36:34.342Z,6.90
2023-03-05T12:39:01.723Z,6.77
2023-03-05T12:41:28.928Z,6.64
2023-03-05T12:44:05.643Z,6.56
2023-03-05T12:46:35.860Z,6.53
2023-03-05T12:49:23.086Z,6.54
2023-03-05T12:51:52.446Z,6.60
2023-03-05T12:54:28.563Z,6.66
2023-03-05T12:56:59.170Z,6.70
2023-03-05T12:59:42.772Z,6.80
2023-03-05T13:02:34.477Z,6.75
2023-03-05T13:05:08.758Z,6.70
2023-03-05T13:07:36.670Z,6.69
2023-03-05T13:10:04.241Z,6.74
2023-03-05T13:12:32.482Z,6.90
2023-03-05T13:15:06.951Z,6.99
2023-03-05T13:17:51.865Z,7.03
2023-03-05T13:20:25.367Z,7.01
2023-03-05T13:23:08.015Z,6.92
2023-03-05T13:25:35.305Z,6.82
2023-03-05T13:28:12.038Z,6.73
2023-03-05T13:30:40.070Z,6.68
2023-03-05T13:33:19.133Z,6.61
2023-03-05T13:35:47.350Z,6.56
2023-03-05T13:38:28.596Z,6.52
2023-03-05T13:41:19.542Z,6.55
2023-03-05T13:43:54.780Z,6.56
2023-03-05T13:46:38.746Z,6.55
2023-03-05T13:49:23.943Z,6.50
2023-03-05T13:51:54.727Z,6.47
2023-03-05T13:54:23.727Z,6.50
2023-03-05T13:56:55.686Z,6.49
2023-03-05T13:59:29.648Z,6.45
2023-03-05T14:01:59.529Z,6.37
2023-03-05T14:04:29.690Z,6.35
2023-03-05T14:07:05.801Z,6.32
2023-03-05T14:09:38.986Z,6.29
2023-03-05T14:12:21.490Z,6.31
2023-03-05T14:14:49.254Z,6.31
2023-03-05T14:17:38.680Z,6.35
2023-03-05T14:20:27.630Z,6.28
2023-03-05T14:23:26.835Z,6.19
2023-03-05T14:26:19.461Z,6.04
2023-03-05T14:29:17.502Z,5.95
2023-03-05T14:32:06.308Z,5.92
2023-03-05T14:34:38.162Z,5.90
2023-03-05T14:37:17.550Z,5.89
2023-03-05T14:40:21.968Z,5.86
2023-03-05T14:43:00.174Z,5.75
2023-03-05T14:45:32.635Z,5.66
2023-03-05T14:48:02.050Z,5.62
2023-03-05T14:50:33.231Z,5.57
2023-03-05T14:53:03.957Z,5.55
2023-03-05T14:55:32.079Z,5.52
2023-03-05T14:58:12.660Z,5.51
2023-03-05T15:00:41.540Z,5.50
2023-03-05T15:03:13.765Z,5.49
2023-03-05T15:05:44.720Z,5.50
2023-03-05T15:08:19.857Z,5.52
2023-03-05T15:10:47.417Z,5.52
2023-03-05T15:13:15.899Z,5.51
2023-03-05T15:15:45.304Z,5.41
2023-03-05T15:18:14.759Z,5.35
2023-03-05T15:20:42.420Z,5.25
2023-03-05T15:23:10.136Z,5.23
2023-03-05T15:25:37.406Z,5.22
2023-03-05T15:28:06.268Z,5.20
2023-03-05T15:30:38.960Z,5.19
2023-03-05T15:33:09.542Z,5.23
2023-03-05T15:35:37.287Z,5.31
2023-03-05T15:38:05.071Z,5.37
2023-03-05T15:40:33.076Z,5.42
2023-03-05T15:43:01.223Z,5.36
2023-03-05T15:45:39.025Z,5.31
2023-03-05T15:48:13.164Z,5.21
2023-03-05T15:50:45.466Z,5.15
2023-03-05T15:53:32.534Z,5.09
2023-03-05T15:56:02.402Z,5.04
2023-03-05T15:58:40.229Z,5.00
2023-03-05T16:01:29.718Z,4.98
2023-03-05T16:04:05.455Z,4.95
2023-03-05T16:06:34.641Z,4.92
2023-03-05T16:09:04.847Z,4.91
2023-03-05T16:11:40.646Z,4.88
2023-03-05T16:14:10.361Z,4.86
2023-03-05T16:16:39.185Z,4.86
2023-03-05T16:19:10.527Z,4.82
2023-03-05T16:21:38.352Z,4.79
2023-03-05T16:24:08.864Z,4.77
2023-03-05T16:26:39.090Z,4.77
2023-03-05T16:29:10.215Z,4.75
2023-03-05T16:31:42.007Z,4.69
2023-03-05T16:34:10.319Z,4.64
2023-03-05T16:36:37.842Z,4.59
2023-03-05T16:39:05.816Z,4.58
2023-03-05T16:41:36.662Z,4.53
2023-03-05T16:44:04.999Z,4.50
2023-03-05T16:46:34.997Z,4.45
2023-03-05T16:49:03.840Z,4.41
2023-03-05T16:51:33.668Z,4.35
2023-03-05T16:54:01.311Z,4.30
2023-03-05T16:56:28.843Z,4.26
2023-03-05T16:58:56.594Z,4.18
2023-03-05T17:01:24.511Z,4.11
2023-03-05T17:03:53.667Z,4.09
2023-03-05T17:06:24.817Z,4.04
2023-03-05T17:08:52.789Z,3.99
2023-03-05T17:11:21.767Z,3.90
2023-03-05T17:13:50.385Z,3.86
2023-03-05T17:16:19.385Z,3.81
2023-03-05T17:18:47.462Z,3.79
2023-03-05T17:21:15.612Z,3.76
2023-03-05T17:23:43.132Z,3.74
2023-03-05T17:26:13.378Z,3.71
2023-03-05T17:28:41.567Z,3.67
2023-03-05T17:31:08.906Z,3.64
2023-03-05T17:33:36.945Z,3.63
2023-03-05T17:36:06.126Z,3.60
2023-03-05T17:38:33.569Z,3.59
2023-03-05T17:41:00.814Z,3.58
2023-03-05T17:43:28.115Z,3.56
2023-03-05T17:45:59.743Z,3.54
2023-03-05T17:48:27.920Z,3.52
2023-03-05T17:50:55.359Z,3.51
2023-03-05T17:53:23.071Z,3.53
2023-03-05T17:55:50.425Z,3.51
2023-03-05T17:58:17.736Z,3.51
2023-03-05T18:00:45.469Z,3.51
2023-03-05T18:03:12.789Z,3.51
2023-03-05T18:05:41.120Z,3.51
2023-03-05T18:08:08.629Z,3.50
2023-03-05T18:10:36.375Z,3.50
2023-03-05T18:13:03.956Z,3.50
2023-03-05T18:15:33.440Z,3.47
2023-03-05T18:18:01.385Z,3.45
2023-03-05T18:20:37.182Z,3.42
2023-03-05T18:23:05.710Z,3.40
2023-03-05T18:25:33.125Z,3.38
2023-03-05T18:28:02.546Z,3.35
2023-03-05T18:30:30.829Z,3.30
2023-03-05T18:32:59.231Z,3.27
2023-03-05T18:35:29.042Z,3.25
2023-03-05T18:37:57.104Z,3.20
2023-03-05T18:40:27.432Z,3.16
2023-03-05T18:42:55.416Z,3.12
2023-03-05T18:45:23.226Z,3.09
2023-03-05T18:47:54.202Z,3.06
2023-03-05T18:50:24.262Z,3.05
2023-03-05T18:52:52.308Z,3.03
2023-03-05T18:55:24.219Z,2.98
2023-03-05T18:57:52.300Z,2.98
2023-03-05T19:00:23.378Z,2.97
2023-03-05T19:02:51.065Z,2.93
2023-03-05T19:05:19.153Z,2.92
2023-03-05T19:07:47.281Z,2.93
2023-03-05T19:10:16.196Z,2.92
2023-03-05T19:12:57.921Z,2.89
2023-03-05T19:15:25.463Z,2.86
2023-03-05T19:17:53.524Z,2.85
2023-03-05T19:20:20.958Z,2.84
2023-03-05T19:22:50.893Z,2.83
2023-03-05T19:25:18.595Z,2.82
2023-03-05T19:27:46.050Z,2.82
2023-03-05T19:30:14.322Z,2.80
2023-03-05T19:32:41.704Z,2.78
2023-03-05T19:35:13.869Z,2.76
2023-03-05T19:37:41.250Z,2.74
2023-03-05T19:40:16.145Z,2.73
2023-03-05T19:42:43.560Z,2.73
2023-03-05T19:45:11.263Z,2.75
2023-03-05T19:47:39.127Z,2.72
2023-03-05T19:50:07.690Z,2.70
2023-03-05T19:52:35.307Z,2.70
2023-03-05T19:55:02.646Z,2.69
2023-03-05T19:57:30.149Z,2.69
2023-03-05T19:59:57.497Z,2.69
2023-03-05T20:02:24.932Z,2.71
2023-03-05T20:04:54.924Z,2.69
2023-03-05T20:07:22.246Z,2.70
2023-03-05T20:09:54.018Z,2.69
2023-03-05T20:12:22.622Z,2.69
2023-03-05T20:14:49.936Z,2.68
2023-03-05T20:17:17.384Z,2.65
2023-03-05T20:19:44.649Z,2.66
2023-03-05T20:22:12.186Z,2.67
2023-03-05T20:24:39.393Z,2.67
2023-03-05T20:27:07.306Z,2.68
2023-03-05T20:29:34.491Z,2.69
2023-03-05T20:32:02.160Z,2.69
2023-03-05T20:34:31.256Z,2.68
2023-03-05T20:36:58.617Z,2.69
2023-03-05T20:39:25.952Z,2.70
2023-03-05T20:41:53.391Z,2.68
2023-03-05T20:44:20.588Z,2.68
2023-03-05T20:47:02.698Z,2.68
2023-03-05T20:49:30.227Z,2.68
2023-03-05T20:51:57.772Z,2.69
2023-03-05T20:54:27.339Z,2.69
2023-03-05T20:56:56.101Z,2.68
2023-03-05T20:59:24.860Z,2.68
2023-03-05T21:01:52.205Z,2.67
2023-03-05T21:04:19.756Z,2.68
2023-03-05T21:06:53.293Z,2.68
2023-03-05T21:09:20.545Z,2.67
2023-03-05T21:11:47.915Z,2.68
2023-03-05T21:14:15.183Z,2.70
2023-03-05T21:16:42.520Z,2.71
2023-03-05T21:19:09.863Z,2.73
2023-03-05T21:21:38.981Z,2.73
2023-03-05T21:24:06.618Z,2.75
2023-03-05T21:26:34.114Z,2.76
2023-03-05T21:29:01.582Z,2.80
2023-03-05T21:31:29.456Z,2.84
2023-03-05T21:33:59.526Z,2.84
2023-03-05T21:36:26.997Z,2.84
2023-03-05T21:38:54.518Z,2.84
2023-03-05T21:41:23.206Z,2.83
2023-03-05T21:43:50.786Z,2.80
2023-03-05T21:46:18.273Z,2.72
2023-03-05T21:48:45.739Z,2.64
2023-03-05T21:51:13.774Z,2.53
2023-03-05T21:53:43.612Z,2.41
2023-03-05T21:56:17.678Z,2.37
2023-03-05T21:58:46.869Z,2.33
2023-03-05T22:01:16.152Z,2.29
2023-03-05T22:03:43.536Z,2.27
2023-03-05T22:06:13.602Z,2.25
2023-03-05T22:08:41.058Z,2.22
2023-03-05T22:11:14.815Z,2.22
2023-03-05T22:13:42.436Z,2.22
2023-03-05T22:16:11.628Z,2.26
2023-03-05T22:18:39.190Z,2.26
2023-03-05T22:21:17.160Z,2.25
2023-03-05T22:23:44.601Z,2.26
2023-03-05T22:26:11.871Z,2.22
2023-03-05T22:28:39.322Z,2.20
2023-03-05T22:31:06.615Z,2.19
2023-03-05T22:33:34.121Z,2.19
2023-03-05T22:36:07.987Z,2.16
2023-03-05T22:38:35.370Z,2.12
2023-03-05T22:41:07.922Z,2.08
2023-03-05T22:43:35.835Z,2.07
2023-03-05T22:46:21.705Z,2.04
2023-03-05T22:48:49.465Z,1.98
2023-03-05T22:51:17.761Z,1.95
2023-03-05T22:53:46.091Z,1.93
2023-03-05T22:56:16.797Z,1.92
2023-03-05T22:58:44.238Z,1.87
2023-03-05T23:01:12.833Z,1.77
2023-03-05T23:03:41.768Z,1.68
2023-03-05T23:06:09.681Z,1.63
2023-03-05T23:08:37.116Z,1.61
2023-03-05T23:11:10.452Z,1.53
2023-03-05T23:13:38.897Z,1.49
2023-03-05T23:16:06.601Z,1.46
2023-03-05T23:18:34.006Z,1.46
2023-03-05T23:21:01.438Z,1.44
2023-03-05T23:23:28.727Z,1.41
2023-03-05T23:25:55.988Z,1.36
2023-03-05T23:28:23.367Z,1.32
2023-03-05T23:30:50.677Z,1.30
2023-03-05T23:33:24.437Z,1.31
2023-03-05T23:35:57.658Z,1.29
2023-03-05T23:38:27.379Z,1.28
2023-03-05T23:40:59.746Z,1.29
2023-03-05T23:43:28.769Z,1.31
2023-03-05T23:45:57.213Z,1.33
2023-03-05T23:48:26.859Z,1.32
2023-03-05T23:50:55.535Z,1.33
2023-03-05T23:53:31.325Z,1.34
2023-03-05T23:55:59.087Z,1.35
2023-03-05T23:58:28.835Z,1.37
